Time;durP1;ratioP1;P1;durP2;ratioP2;P2;SDS_P1;SDS_P2;PMS_P1;PMS_P2;Temp;Humidity;BMP_temperature;BMP_pressure;BME280_temperature;BME280_humidity;BME280_pressure;Samples;Min_cycle;Max_cycle;Signal;HPM_P1;HPM_P2
2020/02/14 15:15:00;;;;;;;4.1;1.4;;;;;;;;;;;;;
2020/02/14 15:17:25;;;;;;;3.5;1.3;;;;;;;;;;;;;
2020/02/14 15:19:50;;;;;;;3.8;1.3;;;;;;;;;;;;;
2020/02/14 15:22:15;;;;;;;4;1.5;;;;;;;;;;;;;
2020/02/14 15:24:40;;;;;;;4.2;1.6;;;;;;;;;;;;;
2020/02/14 15:27:06;;;;;;;3.5;1.4;;;;;;;;;;;;;
2020/02/14 15:29:31;;;;;;;6.8;2.7;;;;;;;;;;;;;
2020/02/14 15:31:56;;;;;;;4;1.7;;;;;;;;;;;;;
2020/02/14 15:34:21;;;;;;;3.6;1.6;;;;;;;;;;;;;
2020/02/14 15:36:46;;;;;;;2.8;1.2;;;;;;;;;;;;;
2020/02/14 15:39:11;;;;;;;3.1;1.4;;;;;;;;;;;;;
2020/02/14 15:41:36;;;;;;;3.1;1.5;;;;;;;;;;;;;
2020/02/14 15:44:01;;;;;;;3.3;1.6;;;;;;;;;;;;;
2020/02/14 15:46:26;;;;;;;4;1.6;;;;;;;;;;;;;
2020/02/14 15:51:16;;;;;;;4.2;1.4;;;;;;;;;;;;;
2020/02/14 15:53:41;;;;;;;3.4;1.5;;;;;;;;;;;;;
2020/02/14 15:56:07;;;;;;;3.5;1.4;;;;;;;;;;;;;
2020/02/14 15:58:32;;;;;;;5.7;1.8;;;;;;;;;;;;;
2020/02/14 16:00:57;;;;;;;3;1.5;;;;;;;;;;;;;
2020/02/14 16:03:22;;;;;;;3.3;1.5;;;;;;;;;;;;;
2020/02/14 16:05:47;;;;;;;3.9;1.8;;;;;;;;;;;;;
2020/02/14 16:08:12;;;;;;;2.8;1.5;;;;;;;;;;;;;
2020/02/14 16:10:37;;;;;;;4;1.4;;;;;;;;;;;;;
2020/02/14 16:13:02;;;;;;;3.6;1.3;;;;;;;;;;;;;
2020/02/14 16:15:27;;;;;;;3.6;1.2;;;;;;;;;;;;;
2020/02/14 16:17:52;;;;;;;4;1.1;;;;;;;;;;;;;
2020/02/14 16:20:18;;;;;;;2.3;1.1;;;;;;;;;;;;;
2020/02/14 16:22:43;;;;;;;3.7;1.1;;;;;;;;;;;;;
2020/02/14 16:25:08;;;;;;;2.6;1.1;;;;;;;;;;;;;
2020/02/14 16:27:33;;;;;;;3.6;1.2;;;;;;;;;;;;;
2020/02/14 16:29:58;;;;;;;2.2;1.1;;;;;;;;;;;;;
2020/02/14 16:32:23;;;;;;;3.3;1.3;;;;;;;;;;;;;
2020/02/14 16:34:48;;;;;;;3;1.1;;;;;;;;;;;;;
2020/02/14 16:37:13;;;;;;;3;1.3;;;;;;;;;;;;;
2020/02/14 16:39:38;;;;;;;4.7;1.3;;;;;;;;;;;;;
2020/02/14 16:42:03;;;;;;;7.6;3.6;;;;;;;;;;;;;
2020/02/14 16:44:28;;;;;;;3.9;1.2;;;;;;;;;;;;;
2020/02/14 16:46:54;;;;;;;3.9;1.4;;;;;;;;;;;;;
2020/02/14 16:49:19;;;;;;;3.1;1.5;;;;;;;;;;;;;
2020/02/14 16:51:44;;;;;;;4.5;2.5;;;;;;;;;;;;;
2020/02/14 16:54:09;;;;;;;5.9;2.4;;;;;;;;;;;;;
2020/02/14 16:56:34;;;;;;;4.5;2.1;;;;;;;;;;;;;
2020/02/14 16:58:59;;;;;;;3.7;1.3;;;;;;;;;;;;;
2020/02/14 17:01:24;;;;;;;3.6;1.4;;;;;;;;;;;;;
2020/02/14 17:03:49;;;;;;;3;1.4;;;;;;;;;;;;;
2020/02/14 17:06:14;;;;;;;4.9;1.5;;;;;;;;;;;;;
2020/02/14 17:08:39;;;;;;;4.8;1.9;;;;;;;;;;;;;
2020/02/14 17:11:04;;;;;;;3.2;1.8;;;;;;;;;;;;;
2020/02/14 17:13:29;;;;;;;3.9;1.7;;;;;;;;;;;;;
2020/02/14 17:15:55;;;;;;;4.3;2;;;;;;;;;;;;;
2020/02/14 17:18:20;;;;;;;4.5;1.9;;;;;;;;;;;;;
2020/02/14 17:20:45;;;;;;;4.5;2.1;;;;;;;;;;;;;
2020/02/14 17:23:10;;;;;;;5;2.5;;;;;;;;;;;;;
2020/02/14 17:25:35;;;;;;;3.7;2.5;;;;;;;;;;;;;
2020/02/14 17:28:00;;;;;;;6.6;2.8;;;;;;;;;;;;;
2020/02/14 17:30:30;;;;;;;5.5;2.8;;;;;;;;;;;;;
2020/02/14 17:32:50;;;;;;;4.1;2.4;;;;;;;;;;;;;
2020/02/14 17:35:15;;;;;;;4.4;2.9;;;;;;;;;;;;;
2020/02/14 17:37:40;;;;;;;4.8;2.9;;;;;;;;;;;;;
2020/02/14 17:40:05;;;;;;;5.3;2.8;;;;;;;;;;;;;
2020/02/14 17:42:31;;;;;;;5.1;2.4;;;;;;;;;;;;;
2020/02/14 17:44:56;;;;;;;3.9;2;;;;;;;;;;;;;
2020/02/14 17:47:21;;;;;;;4.4;2.2;;;;;;;;;;;;;
2020/02/14 17:49:46;;;;;;;6.5;2.2;;;;;;;;;;;;;
2020/02/14 17:52:11;;;;;;;5.6;2.6;;;;;;;;;;;;;
2020/02/14 17:54:36;;;;;;;4.8;2.4;;;;;;;;;;;;;
2020/02/14 17:57:01;;;;;;;7;2.2;;;;;;;;;;;;;
2020/02/14 17:59:26;;;;;;;5.3;2.4;;;;;;;;;;;;;
2020/02/14 18:01:51;;;;;;;5.2;2.4;;;;;;;;;;;;;
2020/02/14 18:04:16;;;;;;;4.4;2.3;;;;;;;;;;;;;
2020/02/14 18:06:41;;;;;;;5.3;2.5;;;;;;;;;;;;;
2020/02/14 18:09:06;;;;;;;4.9;2.5;;;;;;;;;;;;;
2020/02/14 18:11:31;;;;;;;6.7;2.6;;;;;;;;;;;;;
2020/02/14 18:13:56;;;;;;;4.8;2.4;;;;;;;;;;;;;
2020/02/14 18:16:21;;;;;;;5.3;2.4;;;;;;;;;;;;;
2020/02/14 18:18:47;;;;;;;6.5;2.4;;;;;;;;;;;;;
2020/02/14 18:21:12;;;;;;;9.9;4.8;;;;;;;;;;;;;
2020/02/14 18:23:37;;;;;;;5.8;2.8;;;;;;;;;;;;;
2020/02/14 18:26:02;;;;;;;10.9;6.2;;;;;;;;;;;;;
2020/02/14 18:28:27;;;;;;;9.7;5.6;;;;;;;;;;;;;
2020/02/14 18:33:33;;;;;;;5.3;2.6;;;;;;;;;;;;;
2020/02/14 18:35:53;;;;;;;4.8;2.6;;;;;;;;;;;;;
2020/02/14 18:38:18;;;;;;;5.2;2.6;;;;;;;;;;;;;
2020/02/14 18:40:48;;;;;;;6.2;2.8;;;;;;;;;;;;;
2020/02/14 18:42:58;;;;;;;4.9;2.6;;;;;;;;;;;;;
2020/02/14 18:45:23;;;;;;;4.8;2.7;;;;;;;;;;;;;
2020/02/14 18:47:48;;;;;;;4.7;2.8;;;;;;;;;;;;;
2020/02/14 18:50:13;;;;;;;5.2;2.6;;;;;;;;;;;;;
2020/02/14 18:52:38;;;;;;;6.6;3.4;;;;;;;;;;;;;
2020/02/14 18:55:03;;;;;;;6.8;3.7;;;;;;;;;;;;;
2020/02/14 18:57:28;;;;;;;7.6;4.4;;;;;;;;;;;;;
2020/02/14 19:00:14;;;;;;;8.2;4.9;;;;;;;;;;;;;
2020/02/14 19:02:19;;;;;;;7.2;4.3;;;;;;;;;;;;;
2020/02/14 19:04:44;;;;;;;6.6;3.8;;;;;;;;;;;;;
2020/02/14 19:07:09;;;;;;;5.9;3.5;;;;;;;;;;;;;
2020/02/14 19:09:34;;;;;;;7.2;3.3;;;;;;;;;;;;;
2020/02/14 19:11:59;;;;;;;6;3.3;;;;;;;;;;;;;
2020/02/14 19:14:42;;;;;;;6;3.3;;;;;;;;;;;;;
2020/02/14 19:17:31;;;;;;;6.1;3.3;;;;;;;;;;;;;
2020/02/14 19:19:14;;;;;;;5.8;3.3;;;;;;;;;;;;;
2020/02/14 19:21:39;;;;;;;6.6;3.4;;;;;;;;;;;;;
2020/02/14 19:24:04;;;;;;;5.8;3.2;;;;;;;;;;;;;
2020/02/14 19:26:29;;;;;;;6.7;3.3;;;;;;;;;;;;;
2020/02/14 19:28:55;;;;;;;4.4;2.7;;;;;;;;;;;;;
2020/02/14 19:31:20;;;;;;;6;3;;;;;;;;;;;;;
2020/02/14 19:33:45;;;;;;;6.1;3.6;;;;;;;;;;;;;
2020/02/14 19:36:10;;;;;;;7.4;3.3;;;;;;;;;;;;;
2020/02/14 19:38:35;;;;;;;6.9;3.1;;;;;;;;;;;;;
2020/02/14 19:41:00;;;;;;;6.6;3.3;;;;;;;;;;;;;
2020/02/14 19:43:25;;;;;;;5.2;3.1;;;;;;;;;;;;;
2020/02/14 19:45:50;;;;;;;5.6;3;;;;;;;;;;;;;
2020/02/14 19:48:15;;;;;;;5.1;2.6;;;;;;;;;;;;;
2020/02/14 19:50:40;;;;;;;6.2;3.1;;;;;;;;;;;;;
2020/02/14 19:53:05;;;;;;;6.8;3.1;;;;;;;;;;;;;
2020/02/14 19:55:31;;;;;;;4.3;2.5;;;;;;;;;;;;;
2020/02/14 19:57:56;;;;;;;4.5;2.6;;;;;;;;;;;;;
2020/02/14 20:00:23;;;;;;;6.8;2.9;;;;;;;;;;;;;
2020/02/14 20:02:46;;;;;;;6.2;2.9;;;;;;;;;;;;;
2020/02/14 20:05:11;;;;;;;6.1;2.5;;;;;;;;;;;;;
2020/02/14 20:07:36;;;;;;;4.4;2.5;;;;;;;;;;;;;
2020/02/14 20:10:01;;;;;;;5.8;2.5;;;;;;;;;;;;;
2020/02/14 20:12:26;;;;;;;5;2.4;;;;;;;;;;;;;
2020/02/14 20:14:51;;;;;;;6.6;2.7;;;;;;;;;;;;;
2020/02/14 20:17:16;;;;;;;5.3;2.5;;;;;;;;;;;;;
2020/02/14 20:19:41;;;;;;;5.9;2.9;;;;;;;;;;;;;
2020/02/14 20:22:06;;;;;;;6.4;2.9;;;;;;;;;;;;;
2020/02/14 20:24:32;;;;;;;5.4;3.1;;;;;;;;;;;;;
2020/02/14 20:26:57;;;;;;;5.2;2.8;;;;;;;;;;;;;
2020/02/14 20:29:22;;;;;;;4.7;2.8;;;;;;;;;;;;;
2020/02/14 20:31:47;;;;;;;5.7;2.8;;;;;;;;;;;;;
2020/02/14 20:34:14;;;;;;;4.9;2.6;;;;;;;;;;;;;
2020/02/14 20:36:37;;;;;;;4.3;2.1;;;;;;;;;;;;;
2020/02/14 20:39:02;;;;;;;4.4;2.2;;;;;;;;;;;;;
2020/02/14 20:41:27;;;;;;;4.6;2.5;;;;;;;;;;;;;
2020/02/14 20:43:52;;;;;;;5.3;2.8;;;;;;;;;;;;;
2020/02/14 20:46:17;;;;;;;4.3;2.5;;;;;;;;;;;;;
2020/02/14 20:48:43;;;;;;;5.3;3.1;;;;;;;;;;;;;
2020/02/14 20:51:08;;;;;;;5.6;2.8;;;;;;;;;;;;;
2020/02/14 20:53:33;;;;;;;6.2;2.8;;;;;;;;;;;;;
2020/02/14 20:55:58;;;;;;;5.6;2.9;;;;;;;;;;;;;
2020/02/14 21:00:53;;;;;;;4.7;2.5;;;;;;;;;;;;;
2020/02/14 21:03:27;;;;;;;4.4;2.5;;;;;;;;;;;;;
2020/02/14 21:05:39;;;;;;;5;2.5;;;;;;;;;;;;;
2020/02/14 21:10:35;;;;;;;4.8;2.6;;;;;;;;;;;;;
2020/02/14 21:12:53;;;;;;;5.7;2.9;;;;;;;;;;;;;
2020/02/14 21:15:19;;;;;;;5.4;2.7;;;;;;;;;;;;;
2020/02/14 21:17:43;;;;;;;5.8;2.8;;;;;;;;;;;;;
2020/02/14 21:20:09;;;;;;;5.5;2.8;;;;;;;;;;;;;
2020/02/14 21:22:34;;;;;;;5.4;3;;;;;;;;;;;;;
2020/02/14 21:24:59;;;;;;;4.8;2.6;;;;;;;;;;;;;
2020/02/14 21:27:24;;;;;;;5.6;3.2;;;;;;;;;;;;;
2020/02/14 21:29:49;;;;;;;5.9;2.7;;;;;;;;;;;;;
2020/02/14 21:32:14;;;;;;;5.9;2.9;;;;;;;;;;;;;
2020/02/14 21:34:39;;;;;;;6.1;3.1;;;;;;;;;;;;;
2020/02/14 21:37:04;;;;;;;5.8;2.9;;;;;;;;;;;;;
2020/02/14 21:39:29;;;;;;;5.1;2.7;;;;;;;;;;;;;
2020/02/14 21:41:54;;;;;;;4.8;2.6;;;;;;;;;;;;;
2020/02/14 21:44:19;;;;;;;5.5;2.9;;;;;;;;;;;;;
2020/02/14 21:46:45;;;;;;;6.1;2.8;;;;;;;;;;;;;
2020/02/14 21:49:10;;;;;;;6.5;3.1;;;;;;;;;;;;;
2020/02/14 21:51:35;;;;;;;7.2;3.5;;;;;;;;;;;;;
2020/02/14 21:54:00;;;;;;;7.1;3.4;;;;;;;;;;;;;
2020/02/14 21:56:25;;;;;;;5.2;3.1;;;;;;;;;;;;;
2020/02/14 21:58:50;;;;;;;5.8;2.9;;;;;;;;;;;;;
2020/02/14 22:01:15;;;;;;;6.1;3.1;;;;;;;;;;;;;
2020/02/14 22:03:40;;;;;;;7.6;3.7;;;;;;;;;;;;;
2020/02/14 22:06:05;;;;;;;6.7;3.3;;;;;;;;;;;;;
2020/02/14 22:08:31;;;;;;;5.8;3.3;;;;;;;;;;;;;
2020/02/14 22:10:56;;;;;;;6;3.5;;;;;;;;;;;;;
2020/02/14 22:13:21;;;;;;;6.4;3.3;;;;;;;;;;;;;
2020/02/14 22:15:46;;;;;;;5.4;3.4;;;;;;;;;;;;;
2020/02/14 22:18:11;;;;;;;7.7;4;;;;;;;;;;;;;
2020/02/14 22:20:36;;;;;;;6.5;3.9;;;;;;;;;;;;;
2020/02/14 22:23:01;;;;;;;5.5;3.6;;;;;;;;;;;;;
2020/02/14 22:25:26;;;;;;;7.5;3.8;;;;;;;;;;;;;
2020/02/14 22:27:51;;;;;;;6.1;3.4;;;;;;;;;;;;;
2020/02/14 22:30:16;;;;;;;6;3.3;;;;;;;;;;;;;
2020/02/14 22:32:41;;;;;;;6.5;3.4;;;;;;;;;;;;;
2020/02/14 22:35:07;;;;;;;6.3;3.3;;;;;;;;;;;;;
2020/02/14 22:37:32;;;;;;;6.2;4;;;;;;;;;;;;;
2020/02/14 22:39:57;;;;;;;7;3.5;;;;;;;;;;;;;
2020/02/14 22:42:22;;;;;;;6.7;3.6;;;;;;;;;;;;;
2020/02/14 22:44:47;;;;;;;6.2;3.5;;;;;;;;;;;;;
2020/02/14 22:47:12;;;;;;;6.1;3.2;;;;;;;;;;;;;
2020/02/14 22:49:37;;;;;;;6.4;3.3;;;;;;;;;;;;;
2020/02/14 22:52:02;;;;;;;7;3.5;;;;;;;;;;;;;
2020/02/14 22:54:27;;;;;;;7.4;3.6;;;;;;;;;;;;;
2020/02/14 22:56:52;;;;;;;7.2;3.4;;;;;;;;;;;;;
2020/02/14 22:59:17;;;;;;;6.6;3.5;;;;;;;;;;;;;
2020/02/14 23:01:42;;;;;;;6.9;3.3;;;;;;;;;;;;;
2020/02/14 23:04:07;;;;;;;7.5;3.3;;;;;;;;;;;;;
2020/02/14 23:06:33;;;;;;;7.7;4.4;;;;;;;;;;;;;
2020/02/14 23:08:58;;;;;;;11.2;8;;;;;;;;;;;;;
2020/02/14 23:11:23;;;;;;;11.4;7;;;;;;;;;;;;;
2020/02/14 23:13:48;;;;;;;11.4;7.5;;;;;;;;;;;;;
2020/02/14 23:16:13;;;;;;;8.6;3.9;;;;;;;;;;;;;
2020/02/14 23:21:16;;;;;;;7.3;5.3;;;;;;;;;;;;;
2020/02/14 23:23:34;;;;;;;8.9;4.6;;;;;;;;;;;;;
2020/02/14 23:25:57;;;;;;;7.8;4.1;;;;;;;;;;;;;
2020/02/14 23:28:18;;;;;;;7.1;3.3;;;;;;;;;;;;;
2020/02/14 23:30:44;;;;;;;6.3;3.8;;;;;;;;;;;;;
2020/02/14 23:33:09;;;;;;;10;4.3;;;;;;;;;;;;;
2020/02/14 23:35:34;;;;;;;6.8;4.2;;;;;;;;;;;;;
2020/02/14 23:37:59;;;;;;;9.8;5;;;;;;;;;;;;;
2020/02/14 23:40:24;;;;;;;7.1;4.1;;;;;;;;;;;;;
2020/02/14 23:42:49;;;;;;;7.5;4.1;;;;;;;;;;;;;
2020/02/14 23:45:14;;;;;;;7.4;3.7;;;;;;;;;;;;;
2020/02/14 23:47:40;;;;;;;7.4;5;;;;;;;;;;;;;
2020/02/14 23:50:05;;;;;;;7.8;4.6;;;;;;;;;;;;;
2020/02/14 23:52:30;;;;;;;9;4.6;;;;;;;;;;;;;
2020/02/14 23:54:55;;;;;;;8.8;4.2;;;;;;;;;;;;;
2020/02/14 23:57:20;;;;;;;8.6;5.2;;;;;;;;;;;;;
2020/02/14 23:59:46;;;;;;;9.3;5;;;;;;;;;;;;;
